»·PEaware :: DCM720 KEGE-KRKS

DCM720 :: KEGE-KRKS

FLIGHT INFORMATION

Flight Status: Arrived
Operator:
DotCom
More flights by this operator :: More flights under this callsign
Pilot: Shawn N. (11060)
Aircraft: BOEING 737-800
(B738)
More flights by this aircraft type
Origin: KEGE Eagle Co Regl
United States
Destination: KRKS Rock Springs-Sweetwater
United States
More flights between these airports :: More routes between these airports
Route: +GYPSM6 RLG CHE SNAKY
File this flight plan on PilotEdge
Remarks:
Altitude:
(Current/Filed)
30,000ft
Speed:
(Current/Filed)
440kts
Departed: 04-Aug-18 08:16 PM
Arrived: 04-Aug-18 08:50 PM
Distance/Time
Traveled:
153nm/0:34
Distance/Time
To Go:
Arrived

Flight Plot

Page will automatically refresh every two minutes.

Flight plan parsing failed; only flown route is shown


Map Options




Map Legend


Flown Route
Filed Route
Departure Airport
Arrival Airport
Navaid (VOR, NDB)
Fix

Horizontal Profiles

Position Reports

Time Latitude Longitude Heading Altitude Ground
Speed
04-Aug-18 20:02 39.641242 -106.910073 82 6553ft 0kts
04-Aug-18 20:03 39.641242 -106.910073 82 6553ft 0kts
04-Aug-18 20:04 39.641242 -106.910073 82 6553ft 0kts
04-Aug-18 20:05 39.641242 -106.910073 82 6553ft 0kts
04-Aug-18 20:06 39.641242 -106.910073 82 6553ft 0kts
04-Aug-18 20:07 39.641242 -106.910073 82 6553ft 0kts
04-Aug-18 20:08 39.641242 -106.910073 82 6553ft 0kts
04-Aug-18 20:09 39.641242 -106.910073 82 6553ft 0kts
04-Aug-18 20:10 39.641242 -106.910073 82 6553ft 0kts
04-Aug-18 20:11 39.641242 -106.910073 82 6553ft 0kts
04-Aug-18 20:12 39.641242 -106.910072 82 6553ft 0kts
04-Aug-18 20:13 39.641566 -106.910572 281 6553ft 2kts
04-Aug-18 20:14 39.642558 -106.908519 83 6553ft 14kts
04-Aug-18 20:15 39.643132 -106.903176 81 6553ft 15kts
04-Aug-18 20:16 39.643986 -106.901833 349 6553ft 15kts
04-Aug-18 20:17 39.641112 -106.932932 262 6839ft 182kts
04-Aug-18 20:18 39.649816 -107.001657 299 9134ft 234kts
04-Aug-18 20:19 39.702473 -107.064001 333 10587ft 320kts
04-Aug-18 20:20 39.782126 -107.043441 48 13847ft 355kts
04-Aug-18 20:21 39.830239 -106.933092 35 17048ft 373kts
04-Aug-18 20:22 39.917387 -106.936222 330 19990ft 353kts
04-Aug-18 20:23 40.003248 -106.988133 329 22712ft 368kts
04-Aug-18 20:24 40.092266 -107.042277 329 25207ft 381kts
04-Aug-18 20:25 40.177396 -107.094222 329 27245ft 394kts
04-Aug-18 20:26 40.273237 -107.152866 328 29252ft 406kts
04-Aug-18 20:27 40.370351 -107.212507 328 30249ft 419kts
04-Aug-18 20:28 40.470475 -107.274269 328 30248ft 441kts
04-Aug-18 20:29 40.559523 -107.364382 305 30243ft 427kts
04-Aug-18 20:30 40.632922 -107.480694 305 30200ft 426kts
04-Aug-18 20:31 40.704076 -107.593904 305 30197ft 426kts
04-Aug-18 20:32 40.770322 -107.699142 303 30242ft 422kts
04-Aug-18 20:33 40.838755 -107.807810 303 30259ft 420kts
04-Aug-18 20:34 40.910530 -107.921598 303 30257ft 420kts
04-Aug-18 20:35 40.982572 -108.035627 304 30255ft 420kts
04-Aug-18 20:36 41.055903 -108.151464 304 29384ft 421kts
04-Aug-18 20:37 41.122199 -108.256051 305 27643ft 430kts
04-Aug-18 20:38 41.197127 -108.374184 305 25705ft 442kts
04-Aug-18 20:39 41.271881 -108.490663 306 23671ft 387kts
04-Aug-18 20:40 41.338273 -108.590897 306 21701ft 368kts
04-Aug-18 20:41 41.400400 -108.683371 307 19836ft 359kts
04-Aug-18 20:42 41.464513 -108.777524 307 17898ft 352kts
04-Aug-18 20:43 41.507755 -108.880524 272 15509ft 330kts
04-Aug-18 20:44 41.512162 -108.989729 275 14341ft 293kts
04-Aug-18 20:45 41.519827 -109.089202 275 12834ft 288kts
04-Aug-18 20:46 41.526996 -109.190377 275 11354ft 281kts
04-Aug-18 20:47 41.558129 -109.268043 336 10100ft 260kts
04-Aug-18 20:48 41.615626 -109.237085 66 8612ft 252kts
04-Aug-18 20:49 41.611437 -109.160363 111 7940ft 199kts
04-Aug-18 20:50 41.600802 -109.100570 106 6991ft 150kts
04-Aug-18 20:51 41.594734 -109.065438 86 6746ft 18kts
04-Aug-18 20:52 41.596507 -109.067595 8 6743ft 9kts
04-Aug-18 20:53 41.599147 -109.065407 270 6743ft 0kts

Navigation Log

Ident Type
Flight plan parsing failed, navigation log unavailable